sensor_id;sensor_type;location;lat;lon;timestamp;pressure;altitude;pressure_sealevel;temperature;humidity
20793;BME280;10556;-33.662;151.094;2024-02-26T00:02:54;99039.22;;;35.48;55.06
20793;BME280;10556;-33.662;151.094;2024-02-26T00:07:59;99026.13;;;35.41;53.61
20793;BME280;10556;-33.662;151.094;2024-02-26T00:13:02;99031.28;;;35.70;54.27
20793;BME280;10556;-33.662;151.094;2024-02-26T00:18:06;99038.69;;;34.63;50.64
20793;BME280;10556;-33.662;151.094;2024-02-26T00:23:11;99038.16;;;35.11;50.82
20793;BME280;10556;-33.662;151.094;2024-02-26T00:28:14;99040.41;;;35.19;50.28
20793;BME280;10556;-33.662;151.094;2024-02-26T00:33:19;99044.41;;;34.88;51.45
20793;BME280;10556;-33.662;151.094;2024-02-26T00:38:23;99052.66;;;34.58;50.54
20793;BME280;10556;-33.662;151.094;2024-02-26T00:43:27;99063.69;;;34.38;52.60
20793;BME280;10556;-33.662;151.094;2024-02-26T00:48:30;99086.47;;;32.95;54.25
20793;BME280;10556;-33.662;151.094;2024-02-26T00:53:35;99076.78;;;32.17;56.44
20793;BME280;10556;-33.662;151.094;2024-02-26T00:58:39;99084.44;;;32.67;56.62
20793;BME280;10556;-33.662;151.094;2024-02-26T01:03:41;99088.09;;;31.20;59.74
20793;BME280;10556;-33.662;151.094;2024-02-26T01:08:47;99077.78;;;33.17;59.02
20793;BME280;10556;-33.662;151.094;2024-02-26T01:13:50;99079.00;;;34.36;54.07
20793;BME280;10556;-33.662;151.094;2024-02-26T01:18:53;99071.59;;;34.10;56.63
20793;BME280;10556;-33.662;151.094;2024-02-26T01:23:57;99085.41;;;34.40;55.25
20793;BME280;10556;-33.662;151.094;2024-02-26T01:29:00;99092.59;;;34.16;57.51
20793;BME280;10556;-33.662;151.094;2024-02-26T01:34:04;99083.59;;;32.96;58.29
20793;BME280;10556;-33.662;151.094;2024-02-26T01:39:09;99090.09;;;33.70;55.08
20793;BME280;10556;-33.662;151.094;2024-02-26T01:44:13;99103.75;;;32.49;57.85
20793;BME280;10556;-33.662;151.094;2024-02-26T01:49:17;99106.91;;;30.92;61.48
20793;BME280;10556;-33.662;151.094;2024-02-26T01:54:22;99109.66;;;29.18;70.47
20793;BME280;10556;-33.662;151.094;2024-02-26T01:59:26;99110.28;;;29.46;81.60
20793;BME280;10556;-33.662;151.094;2024-02-26T02:04:35;99117.41;;;30.67;66.93
20793;BME280;10556;-33.662;151.094;2024-02-26T02:09:41;99107.22;;;31.09;65.88
20793;BME280;10556;-33.662;151.094;2024-02-26T02:14:49;99115.47;;;30.88;61.12
20793;BME280;10556;-33.662;151.094;2024-02-26T02:19:53;99117.59;;;31.29;60.05
20793;BME280;10556;-33.662;151.094;2024-02-26T02:24:58;99123.66;;;31.97;60.09
20793;BME280;10556;-33.662;151.094;2024-02-26T02:30:05;99115.41;;;30.94;60.33
20793;BME280;10556;-33.662;151.094;2024-02-26T02:35:08;99120.78;;;29.46;66.22
20793;BME280;10556;-33.662;151.094;2024-02-26T02:40:15;99113.88;;;28.99;71.82
20793;BME280;10556;-33.662;151.094;2024-02-26T02:45:19;99116.34;;;30.75;65.31
20793;BME280;10556;-33.662;151.094;2024-02-26T02:50:27;99123.03;;;31.95;59.91
20793;BME280;10556;-33.662;151.094;2024-02-26T02:55:33;99128.56;;;32.30;58.68
20793;BME280;10556;-33.662;151.094;2024-02-26T03:00:36;99115.03;;;30.59;65.21
20793;BME280;10556;-33.662;151.094;2024-02-26T03:05:39;99111.34;;;30.98;64.36
20793;BME280;10556;-33.662;151.094;2024-02-26T03:10:44;99108.44;;;31.99;61.68
20793;BME280;10556;-33.662;151.094;2024-02-26T03:15:47;99116.97;;;31.76;58.33
20793;BME280;10556;-33.662;151.094;2024-02-26T03:20:51;99100.09;;;31.16;56.19
20793;BME280;10556;-33.662;151.094;2024-02-26T03:25:56;99109.03;;;29.68;66.03
20793;BME280;10556;-33.662;151.094;2024-02-26T03:31:04;99110.97;;;28.68;73.82
20793;BME280;10556;-33.662;151.094;2024-02-26T03:36:07;99103.41;;;27.35;81.38
20793;BME280;10556;-33.662;151.094;2024-02-26T03:41:12;99091.59;;;26.97;96.71
20793;BME280;10556;-33.662;151.094;2024-02-26T03:46:16;99096.03;;;27.45;93.66
20793;BME280;10556;-33.662;151.094;2024-02-26T03:51:19;99101.72;;;27.49;96.24
20793;BME280;10556;-33.662;151.094;2024-02-26T03:56:23;99089.91;;;27.59;99.06
20793;BME280;10556;-33.662;151.094;2024-02-26T04:01:28;99088.56;;;27.70;98.94
20793;BME280;10556;-33.662;151.094;2024-02-26T04:06:35;99089.56;;;27.13;100.00
20793;BME280;10556;-33.662;151.094;2024-02-26T04:11:44;99082.34;;;27.71;100.00
20793;BME280;10556;-33.662;151.094;2024-02-26T04:16:47;99091.34;;;28.50;94.84
20793;BME280;10556;-33.662;151.094;2024-02-26T04:21:51;99074.34;;;27.86;100.00
20793;BME280;10556;-33.662;151.094;2024-02-26T04:26:56;99080.09;;;27.68;100.00
20793;BME280;10556;-33.662;151.094;2024-02-26T04:31:58;99073.31;;;27.24;100.00
20793;BME280;10556;-33.662;151.094;2024-02-26T04:37:02;99083.50;;;26.34;100.00
20793;BME280;10556;-33.662;151.094;2024-02-26T04:42:07;99085.50;;;26.18;100.00
20793;BME280;10556;-33.662;151.094;2024-02-26T04:47:10;99094.72;;;25.99;100.00
20793;BME280;10556;-33.662;151.094;2024-02-26T04:52:14;99091.19;;;26.07;100.00
20793;BME280;10556;-33.662;151.094;2024-02-26T04:57:23;99087.97;;;26.55;100.00
20793;BME280;10556;-33.662;151.094;2024-02-26T05:02:26;99082.13;;;26.96;100.00
20793;BME280;10556;-33.662;151.094;2024-02-26T05:07:29;99087.66;;;26.14;100.00
20793;BME280;10556;-33.662;151.094;2024-02-26T05:12:36;99087.75;;;25.62;100.00
20793;BME280;10556;-33.662;151.094;2024-02-26T05:17:39;99090.59;;;25.52;100.00
20793;BME280;10556;-33.662;151.094;2024-02-26T05:22:42;99075.25;;;25.57;100.00
20793;BME280;10556;-33.662;151.094;2024-02-26T05:27:46;99076.97;;;25.80;100.00
20793;BME280;10556;-33.662;151.094;2024-02-26T05:32:49;99091.34;;;26.34;100.00
20793;BME280;10556;-33.662;151.094;2024-02-26T05:37:52;99089.22;;;26.09;100.00
20793;BME280;10556;-33.662;151.094;2024-02-26T05:42:57;99088.59;;;26.21;100.00
20793;BME280;10556;-33.662;151.094;2024-02-26T05:48:02;99099.13;;;25.98;100.00
20793;BME280;10556;-33.662;151.094;2024-02-26T05:53:05;99101.47;;;25.93;100.00
20793;BME280;10556;-33.662;151.094;2024-02-26T05:58:19;99111.00;;;26.30;100.00
20793;BME280;10556;-33.662;151.094;2024-02-26T06:03:21;99107.63;;;26.51;100.00
20793;BME280;10556;-33.662;151.094;2024-02-26T06:08:25;99131.88;;;26.45;100.00
20793;BME280;10556;-33.662;151.094;2024-02-26T06:13:30;99129.25;;;26.45;100.00
20793;BME280;10556;-33.662;151.094;2024-02-26T06:18:33;99111.31;;;26.57;100.00
20793;BME280;10556;-33.662;151.094;2024-02-26T06:23:39;99117.94;;;26.09;100.00
20793;BME280;10556;-33.662;151.094;2024-02-26T06:28:44;99121.81;;;25.83;100.00
20793;BME280;10556;-33.662;151.094;2024-02-26T06:33:49;99130.47;;;25.46;100.00
20793;BME280;10556;-33.662;151.094;2024-02-26T06:38:55;99143.09;;;24.97;100.00
20793;BME280;10556;-33.662;151.094;2024-02-26T06:44:03;99149.19;;;24.51;100.00
20793;BME280;10556;-33.662;151.094;2024-02-26T06:49:06;99147.00;;;24.31;100.00
20793;BME280;10556;-33.662;151.094;2024-02-26T06:54:10;99167.22;;;24.21;100.00
20793;BME280;10556;-33.662;151.094;2024-02-26T06:59:20;99161.00;;;24.22;100.00
20793;BME280;10556;-33.662;151.094;2024-02-26T07:04:28;99169.00;;;24.21;100.00
20793;BME280;10556;-33.662;151.094;2024-02-26T07:09:31;99187.41;;;24.11;100.00
20793;BME280;10556;-33.662;151.094;2024-02-26T07:14:39;99184.97;;;24.02;100.00
20793;BME280;10556;-33.662;151.094;2024-02-26T07:19:42;99189.34;;;24.17;100.00
20793;BME280;10556;-33.662;151.094;2024-02-26T07:24:46;99207.88;;;24.22;100.00
20793;BME280;10556;-33.662;151.094;2024-02-26T07:29:51;99212.16;;;23.91;100.00
20793;BME280;10556;-33.662;151.094;2024-02-26T07:34:57;99222.44;;;23.76;100.00
20793;BME280;10556;-33.662;151.094;2024-02-26T07:40:02;99220.66;;;23.69;100.00
20793;BME280;10556;-33.662;151.094;2024-02-26T07:45:10;99219.00;;;23.60;100.00
20793;BME280;10556;-33.662;151.094;2024-02-26T07:50:13;99216.56;;;23.50;100.00
20793;BME280;10556;-33.662;151.094;2024-02-26T07:55:16;99224.66;;;23.39;100.00
20793;BME280;10556;-33.662;151.094;2024-02-26T08:00:22;99239.59;;;23.37;100.00
20793;BME280;10556;-33.662;151.094;2024-02-26T08:05:27;99246.94;;;23.33;100.00
20793;BME280;10556;-33.662;151.094;2024-02-26T08:10:33;99249.19;;;23.28;100.00
20793;BME280;10556;-33.662;151.094;2024-02-26T08:15:41;99257.63;;;23.14;100.00
20793;BME280;10556;-33.662;151.094;2024-02-26T08:20:47;99267.47;;;23.02;100.00
20793;BME280;10556;-33.662;151.094;2024-02-26T08:25:50;99270.72;;;22.96;100.00
20793;BME280;10556;-33.662;151.094;2024-02-26T08:30:56;99285.81;;;22.93;100.00
20793;BME280;10556;-33.662;151.094;2024-02-26T08:36:02;99298.16;;;22.91;100.00
20793;BME280;10556;-33.662;151.094;2024-02-26T08:41:06;99307.19;;;22.79;100.00
20793;BME280;10556;-33.662;151.094;2024-02-26T08:46:17;99317.41;;;22.72;100.00
20793;BME280;10556;-33.662;151.094;2024-02-26T08:51:20;99320.97;;;22.71;100.00
20793;BME280;10556;-33.662;151.094;2024-02-26T08:56:23;99337.81;;;22.67;100.00
20793;BME280;10556;-33.662;151.094;2024-02-26T09:01:28;99339.00;;;22.73;100.00
20793;BME280;10556;-33.662;151.094;2024-02-26T09:06:31;99352.50;;;22.76;100.00
20793;BME280;10556;-33.662;151.094;2024-02-26T09:11:33;99353.38;;;22.67;100.00
20793;BME280;10556;-33.662;151.094;2024-02-26T09:16:39;99359.13;;;22.71;100.00
20793;BME280;10556;-33.662;151.094;2024-02-26T09:21:44;99377.16;;;22.72;100.00
20793;BME280;10556;-33.662;151.094;2024-02-26T09:26:46;99386.13;;;22.60;100.00
20793;BME280;10556;-33.662;151.094;2024-02-26T09:31:51;99395.78;;;22.50;100.00
20793;BME280;10556;-33.662;151.094;2024-02-26T09:36:55;99406.28;;;22.58;100.00
20793;BME280;10556;-33.662;151.094;2024-02-26T09:41:58;99418.44;;;22.57;100.00
20793;BME280;10556;-33.662;151.094;2024-02-26T09:47:04;99423.78;;;22.56;100.00
20793;BME280;10556;-33.662;151.094;2024-02-26T09:52:10;99414.72;;;22.60;100.00
20793;BME280;10556;-33.662;151.094;2024-02-26T09:57:15;99417.03;;;22.45;100.00
20793;BME280;10556;-33.662;151.094;2024-02-26T10:02:23;99423.44;;;22.33;100.00
20793;BME280;10556;-33.662;151.094;2024-02-26T10:07:26;99425.81;;;22.27;100.00
20793;BME280;10556;-33.662;151.094;2024-02-26T10:12:34;99429.34;;;22.26;100.00
20793;BME280;10556;-33.662;151.094;2024-02-26T10:17:40;99430.50;;;22.23;100.00
20793;BME280;10556;-33.662;151.094;2024-02-26T10:22:50;99434.91;;;22.31;100.00
20793;BME280;10556;-33.662;151.094;2024-02-26T10:27:53;99443.53;;;22.31;100.00
20793;BME280;10556;-33.662;151.094;2024-02-26T10:33:00;99466.41;;;22.28;100.00
20793;BME280;10556;-33.662;151.094;2024-02-26T10:38:06;99481.00;;;22.29;100.00
20793;BME280;10556;-33.662;151.094;2024-02-26T10:43:12;99480.13;;;22.38;100.00
20793;BME280;10556;-33.662;151.094;2024-02-26T10:48:16;99483.53;;;22.38;100.00
20793;BME280;10556;-33.662;151.094;2024-02-26T10:53:22;99470.84;;;22.35;100.00
20793;BME280;10556;-33.662;151.094;2024-02-26T10:58:28;99490.06;;;22.42;100.00
20793;BME280;10556;-33.662;151.094;2024-02-26T11:03:37;99484.25;;;22.31;100.00
20793;BME280;10556;-33.662;151.094;2024-02-26T11:08:42;99488.13;;;22.27;100.00
20793;BME280;10556;-33.662;151.094;2024-02-26T11:13:51;99491.97;;;22.05;100.00
20793;BME280;10556;-33.662;151.094;2024-02-26T11:19:03;99492.53;;;21.71;100.00
20793;BME280;10556;-33.662;151.094;2024-02-26T11:24:06;99476.06;;;21.63;100.00
20793;BME280;10556;-33.662;151.094;2024-02-26T11:29:10;99478.78;;;21.61;100.00
20793;BME280;10556;-33.662;151.094;2024-02-26T11:34:17;99474.16;;;21.55;100.00
20793;BME280;10556;-33.662;151.094;2024-02-26T11:39:23;99482.31;;;21.60;100.00
20793;BME280;10556;-33.662;151.094;2024-02-26T11:44:31;99483.66;;;21.64;100.00
20793;BME280;10556;-33.662;151.094;2024-02-26T11:49:36;99482.38;;;21.78;100.00
20793;BME280;10556;-33.662;151.094;2024-02-26T11:54:45;99476.47;;;21.86;100.00
20793;BME280;10556;-33.662;151.094;2024-02-26T11:59:49;99471.47;;;21.74;100.00
20793;BME280;10556;-33.662;151.094;2024-02-26T12:04:54;99474.81;;;21.67;100.00
20793;BME280;10556;-33.662;151.094;2024-02-26T12:10:24;99474.88;;;21.75;100.00
20793;BME280;10556;-33.662;151.094;2024-02-26T12:15:32;99474.97;;;21.83;100.00
20793;BME280;10556;-33.662;151.094;2024-02-26T12:20:40;99486.78;;;21.68;100.00
20793;BME280;10556;-33.662;151.094;2024-02-26T12:25:43;99490.19;;;21.41;100.00
20793;BME280;10556;-33.662;151.094;2024-02-26T12:30:46;99493.50;;;21.34;100.00
20793;BME280;10556;-33.662;151.094;2024-02-26T12:36:02;99506.31;;;21.35;100.00
20793;BME280;10556;-33.662;151.094;2024-02-26T12:41:05;99500.31;;;21.25;100.00
20793;BME280;10556;-33.662;151.094;2024-02-26T12:46:08;99498.31;;;21.19;100.00
20793;BME280;10556;-33.662;151.094;2024-02-26T12:51:21;99495.97;;;21.06;100.00
20793;BME280;10556;-33.662;151.094;2024-02-26T12:56:24;99487.13;;;20.99;100.00
20793;BME280;10556;-33.662;151.094;2024-02-26T13:01:28;99472.25;;;20.92;100.00
20793;BME280;10556;-33.662;151.094;2024-02-26T13:06:33;99477.34;;;20.83;100.00
20793;BME280;10556;-33.662;151.094;2024-02-26T13:11:41;99481.44;;;20.76;100.00
20793;BME280;10556;-33.662;151.094;2024-02-26T13:16:44;99489.06;;;20.87;100.00
20793;BME280;10556;-33.662;151.094;2024-02-26T13:21:48;99485.38;;;21.00;100.00
20793;BME280;10556;-33.662;151.094;2024-02-26T13:26:55;99486.16;;;21.10;100.00
20793;BME280;10556;-33.662;151.094;2024-02-26T13:31:59;99487.53;;;21.23;100.00
20793;BME280;10556;-33.662;151.094;2024-02-26T13:37:03;99492.69;;;21.33;100.00
20793;BME280;10556;-33.662;151.094;2024-02-26T13:42:09;99489.22;;;21.42;100.00
20793;BME280;10556;-33.662;151.094;2024-02-26T13:47:11;99479.94;;;21.40;100.00
20793;BME280;10556;-33.662;151.094;2024-02-26T13:52:16;99487.19;;;21.36;100.00
20793;BME280;10556;-33.662;151.094;2024-02-26T13:57:19;99480.13;;;21.38;100.00
20793;BME280;10556;-33.662;151.094;2024-02-26T14:02:22;99476.41;;;21.41;100.00
20793;BME280;10556;-33.662;151.094;2024-02-26T14:07:27;99475.41;;;21.51;100.00
20793;BME280;10556;-33.662;151.094;2024-02-26T14:12:29;99463.03;;;21.36;100.00
20793;BME280;10556;-33.662;151.094;2024-02-26T14:17:32;99475.06;;;21.37;100.00
20793;BME280;10556;-33.662;151.094;2024-02-26T14:22:39;99463.22;;;21.34;100.00
20793;BME280;10556;-33.662;151.094;2024-02-26T14:27:42;99445.75;;;21.26;100.00
20793;BME280;10556;-33.662;151.094;2024-02-26T14:32:47;99439.53;;;21.19;100.00
20793;BME280;10556;-33.662;151.094;2024-02-26T14:37:51;99440.69;;;21.25;100.00
20793;BME280;10556;-33.662;151.094;2024-02-26T14:42:57;99435.72;;;21.04;100.00
20793;BME280;10556;-33.662;151.094;2024-02-26T14:48:00;99434.66;;;20.78;100.00
20793;BME280;10556;-33.662;151.094;2024-02-26T14:53:06;99432.75;;;20.80;100.00
20793;BME280;10556;-33.662;151.094;2024-02-26T14:58:09;99432.88;;;20.88;100.00
20793;BME280;10556;-33.662;151.094;2024-02-26T15:03:12;99426.59;;;21.00;100.00
20793;BME280;10556;-33.662;151.094;2024-02-26T15:08:16;99412.22;;;21.06;100.00
20793;BME280;10556;-33.662;151.094;2024-02-26T15:13:22;99415.38;;;21.09;100.00
20793;BME280;10556;-33.662;151.094;2024-02-26T15:18:25;99405.81;;;21.10;100.00
20793;BME280;10556;-33.662;151.094;2024-02-26T15:23:29;99408.13;;;21.13;100.00
20793;BME280;10556;-33.662;151.094;2024-02-26T15:28:32;99410.44;;;21.06;100.00
20793;BME280;10556;-33.662;151.094;2024-02-26T15:33:35;99410.88;;;21.02;100.00
20793;BME280;10556;-33.662;151.094;2024-02-26T15:38:39;99405.69;;;21.02;100.00
20793;BME280;10556;-33.662;151.094;2024-02-26T15:43:45;99395.50;;;21.00;100.00
20793;BME280;10556;-33.662;151.094;2024-02-26T15:48:49;99399.03;;;20.99;100.00
20793;BME280;10556;-33.662;151.094;2024-02-26T15:53:54;99407.06;;;20.96;100.00
20793;BME280;10556;-33.662;151.094;2024-02-26T15:58:56;99400.69;;;21.00;100.00
20793;BME280;10556;-33.662;151.094;2024-02-26T16:04:00;99396.44;;;20.99;100.00
20793;BME280;10556;-33.662;151.094;2024-02-26T16:09:04;99381.16;;;20.96;100.00
20793;BME280;10556;-33.662;151.094;2024-02-26T16:14:13;99384.19;;;20.92;100.00
20793;BME280;10556;-33.662;151.094;2024-02-26T16:19:19;99390.34;;;20.91;100.00
20793;BME280;10556;-33.662;151.094;2024-02-26T16:24:24;99374.22;;;20.97;100.00
20793;BME280;10556;-33.662;151.094;2024-02-26T16:29:26;99368.63;;;20.92;100.00
20793;BME280;10556;-33.662;151.094;2024-02-26T16:34:34;99379.03;;;20.82;100.00
20793;BME280;10556;-33.662;151.094;2024-02-26T16:39:39;99389.78;;;20.87;100.00
20793;BME280;10556;-33.662;151.094;2024-02-26T16:44:42;99395.38;;;20.82;100.00
20793;BME280;10556;-33.662;151.094;2024-02-26T16:49:45;99380.41;;;20.86;100.00
20793;BME280;10556;-33.662;151.094;2024-02-26T16:54:50;99366.75;;;20.84;100.00
20793;BME280;10556;-33.662;151.094;2024-02-26T16:59:54;99371.84;;;20.76;100.00
20793;BME280;10556;-33.662;151.094;2024-02-26T17:04:57;99372.25;;;20.71;100.00
20793;BME280;10556;-33.662;151.094;2024-02-26T17:10:02;99369.28;;;20.66;100.00
20793;BME280;10556;-33.662;151.094;2024-02-26T17:15:05;99370.66;;;20.61;100.00
20793;BME280;10556;-33.662;151.094;2024-02-26T17:20:08;99367.38;;;20.59;100.00
20793;BME280;10556;-33.662;151.094;2024-02-26T17:25:13;99387.41;;;20.57;100.00
20793;BME280;10556;-33.662;151.094;2024-02-26T17:30:16;99380.72;;;20.54;100.00
20793;BME280;10556;-33.662;151.094;2024-02-26T17:35:19;99378.56;;;20.50;100.00
20793;BME280;10556;-33.662;151.094;2024-02-26T17:40:24;99371.50;;;20.42;100.00
20793;BME280;10556;-33.662;151.094;2024-02-26T17:45:27;99382.66;;;20.42;100.00
20793;BME280;10556;-33.662;151.094;2024-02-26T17:50:30;99379.94;;;20.34;100.00
20793;BME280;10556;-33.662;151.094;2024-02-26T17:55:35;99373.94;;;20.34;100.00
20793;BME280;10556;-33.662;151.094;2024-02-26T18:00:38;99359.91;;;20.27;100.00
20793;BME280;10556;-33.662;151.094;2024-02-26T18:05:41;99371.06;;;20.18;100.00
20793;BME280;10556;-33.662;151.094;2024-02-26T18:10:45;99389.03;;;20.10;100.00
20793;BME280;10556;-33.662;151.094;2024-02-26T18:15:48;99397.19;;;20.05;100.00
20793;BME280;10556;-33.662;151.094;2024-02-26T18:20:51;99386.19;;;20.03;100.00
20793;BME280;10556;-33.662;151.094;2024-02-26T18:25:55;99387.66;;;19.96;100.00
20793;BME280;10556;-33.662;151.094;2024-02-26T18:30:58;99394.75;;;19.84;100.00
20793;BME280;10556;-33.662;151.094;2024-02-26T18:36:03;99396.78;;;19.90;100.00
20793;BME280;10556;-33.662;151.094;2024-02-26T18:41:18;99395.84;;;20.01;100.00
20793;BME280;10556;-33.662;151.094;2024-02-26T18:46:21;99391.25;;;20.05;100.00
20793;BME280;10556;-33.662;151.094;2024-02-26T18:51:24;99393.53;;;20.08;100.00
20793;BME280;10556;-33.662;151.094;2024-02-26T18:56:29;99407.31;;;20.08;100.00
20793;BME280;10556;-33.662;151.094;2024-02-26T19:01:32;99414.78;;;20.11;100.00
20793;BME280;10556;-33.662;151.094;2024-02-26T19:06:38;99405.25;;;20.12;100.00
20793;BME280;10556;-33.662;151.094;2024-02-26T19:11:49;99409.47;;;20.13;100.00
20793;BME280;10556;-33.662;151.094;2024-02-26T19:16:52;99424.06;;;20.14;100.00
20793;BME280;10556;-33.662;151.094;2024-02-26T19:21:55;99432.66;;;20.14;100.00
20793;BME280;10556;-33.662;151.094;2024-02-26T19:27:01;99426.78;;;20.12;100.00
20793;BME280;10556;-33.662;151.094;2024-02-26T19:32:09;99433.31;;;20.16;100.00
20793;BME280;10556;-33.662;151.094;2024-02-26T19:37:11;99450.06;;;20.12;100.00
20793;BME280;10556;-33.662;151.094;2024-02-26T19:42:16;99436.59;;;20.18;100.00
20793;BME280;10556;-33.662;151.094;2024-02-26T19:47:19;99442.59;;;20.19;100.00
20793;BME280;10556;-33.662;151.094;2024-02-26T19:52:23;99451.56;;;20.24;100.00
20793;BME280;10556;-33.662;151.094;2024-02-26T19:57:29;99466.13;;;20.25;100.00
20793;BME280;10556;-33.662;151.094;2024-02-26T20:02:31;99479.91;;;20.26;100.00
20793;BME280;10556;-33.662;151.094;2024-02-26T20:07:34;99471.31;;;20.25;100.00
20793;BME280;10556;-33.662;151.094;2024-02-26T20:12:40;99460.34;;;20.33;100.00
20793;BME280;10556;-33.662;151.094;2024-02-26T20:17:43;99469.72;;;20.43;100.00
20793;BME280;10556;-33.662;151.094;2024-02-26T20:22:46;99466.06;;;20.46;100.00
20793;BME280;10556;-33.662;151.094;2024-02-26T20:27:51;99458.81;;;20.50;100.00
20793;BME280;10556;-33.662;151.094;2024-02-26T20:32:55;99454.75;;;20.57;100.00
20793;BME280;10556;-33.662;151.094;2024-02-26T20:37:57;99479.00;;;20.65;100.00
20793;BME280;10556;-33.662;151.094;2024-02-26T20:43:03;99481.47;;;20.67;100.00
20793;BME280;10556;-33.662;151.094;2024-02-26T20:48:06;99493.59;;;20.66;100.00
20793;BME280;10556;-33.662;151.094;2024-02-26T20:53:09;99503.25;;;20.64;100.00
20793;BME280;10556;-33.662;151.094;2024-02-26T20:58:14;99512.78;;;20.64;100.00
20793;BME280;10556;-33.662;151.094;2024-02-26T21:03:17;99522.63;;;20.70;100.00
20793;BME280;10556;-33.662;151.094;2024-02-26T21:08:24;99528.63;;;20.70;100.00
20793;BME280;10556;-33.662;151.094;2024-02-26T21:13:28;99526.69;;;20.72;100.00
20793;BME280;10556;-33.662;151.094;2024-02-26T21:18:34;99540.22;;;20.76;100.00
20793;BME280;10556;-33.662;151.094;2024-02-26T21:23:38;99545.22;;;20.77;100.00
20793;BME280;10556;-33.662;151.094;2024-02-26T21:28:45;99541.28;;;20.73;100.00
20793;BME280;10556;-33.662;151.094;2024-02-26T21:33:53;99531.47;;;20.67;100.00
20793;BME280;10556;-33.662;151.094;2024-02-26T21:38:59;99543.38;;;20.30;100.00
20793;BME280;10556;-33.662;151.094;2024-02-26T21:44:04;99537.34;;;20.10;100.00
20793;BME280;10556;-33.662;151.094;2024-02-26T21:49:09;99546.59;;;20.03;100.00
20793;BME280;10556;-33.662;151.094;2024-02-26T21:54:12;99564.13;;;19.90;100.00
20793;BME280;10556;-33.662;151.094;2024-02-26T21:59:17;99578.41;;;19.84;100.00
20793;BME280;10556;-33.662;151.094;2024-02-26T22:04:20;99566.41;;;19.83;100.00
20793;BME280;10556;-33.662;151.094;2024-02-26T22:09:23;99568.78;;;20.06;100.00
20793;BME280;10556;-33.662;151.094;2024-02-26T22:14:29;99552.91;;;20.29;100.00
20793;BME280;10556;-33.662;151.094;2024-02-26T22:19:32;99547.16;;;20.75;100.00
20793;BME280;10556;-33.662;151.094;2024-02-26T22:24:37;99571.16;;;21.16;100.00
20793;BME280;10556;-33.662;151.094;2024-02-26T22:29:42;99574.41;;;21.37;100.00
20793;BME280;10556;-33.662;151.094;2024-02-26T22:34:47;99571.22;;;21.62;100.00
20793;BME280;10556;-33.662;151.094;2024-02-26T22:39:52;99578.25;;;21.80;100.00
20793;BME280;10556;-33.662;151.094;2024-02-26T22:44:58;99562.34;;;22.29;100.00
20793;BME280;10556;-33.662;151.094;2024-02-26T22:50:01;99555.81;;;23.14;100.00
20793;BME280;10556;-33.662;151.094;2024-02-26T22:55:04;99556.59;;;24.25;100.00
20793;BME280;10556;-33.662;151.094;2024-02-26T23:00:09;99557.97;;;24.46;100.00
20793;BME280;10556;-33.662;151.094;2024-02-26T23:05:13;99549.69;;;24.99;100.00
20793;BME280;10556;-33.662;151.094;2024-02-26T23:10:16;99556.19;;;25.98;100.00
20793;BME280;10556;-33.662;151.094;2024-02-26T23:15:20;99563.94;;;25.84;100.00
20793;BME280;10556;-33.662;151.094;2024-02-26T23:20:23;99564.84;;;25.36;100.00
20793;BME280;10556;-33.662;151.094;2024-02-26T23:25:26;99564.66;;;24.64;100.00
20793;BME280;10556;-33.662;151.094;2024-02-26T23:30:31;99576.16;;;24.29;100.00
20793;BME280;10556;-33.662;151.094;2024-02-26T23:35:35;99570.50;;;24.08;100.00
20793;BME280;10556;-33.662;151.094;2024-02-26T23:40:38;99583.47;;;23.92;100.00
20793;BME280;10556;-33.662;151.094;2024-02-26T23:45:43;99575.56;;;24.10;100.00
20793;BME280;10556;-33.662;151.094;2024-02-26T23:50:45;99565.38;;;24.16;100.00
20793;BME280;10556;-33.662;151.094;2024-02-26T23:55:49;99550.78;;;23.98;100.00
